createdAt,value
2022-12-09T00:01:36.488Z,85.34
2022-12-09T00:04:04.916Z,85.29
2022-12-09T00:06:33.540Z,85.20
2022-12-09T00:09:01.540Z,85.30
2022-12-09T00:11:29.670Z,85.22
2022-12-09T00:13:59.650Z,85.08
2022-12-09T00:16:27.652Z,84.93
2022-12-09T00:18:57.613Z,84.92
2022-12-09T00:21:32.353Z,84.91
2022-12-09T00:24:04.714Z,84.92
2022-12-09T00:26:34.082Z,84.91
2022-12-09T00:29:02.372Z,84.76
2022-12-09T00:31:34.200Z,84.69
2022-12-09T00:34:10.871Z,84.58
2022-12-09T00:36:39.120Z,84.57
2022-12-09T00:39:07.118Z,84.71
2022-12-09T00:41:35.191Z,84.74
2022-12-09T00:44:03.907Z,84.86
2022-12-09T00:46:32.374Z,84.80
2022-12-09T00:49:00.203Z,84.58
2022-12-09T00:51:28.103Z,84.64
2022-12-09T00:53:56.741Z,84.72
2022-12-09T00:56:29.204Z,84.83
2022-12-09T00:58:58.835Z,84.94
2022-12-09T01:01:28.470Z,84.76
2022-12-09T01:03:57.132Z,84.79
2022-12-09T01:06:26.894Z,84.87
2022-12-09T01:08:55.314Z,84.89
2022-12-09T01:11:27.840Z,84.82
2022-12-09T01:14:01.433Z,84.68
2022-12-09T01:16:33.711Z,84.70
2022-12-09T01:19:06.498Z,84.52
2022-12-09T01:21:35.526Z,84.74
2022-12-09T01:24:11.004Z,84.79
2022-12-09T01:26:39.355Z,84.69
2022-12-09T01:29:07.359Z,84.77
2022-12-09T01:31:36.259Z,84.76
2022-12-09T01:34:05.163Z,84.58
2022-12-09T01:36:33.166Z,84.58
2022-12-09T01:39:00.970Z,84.76
2022-12-09T01:41:29.488Z,84.60
2022-12-09T01:44:23.625Z,84.36
2022-12-09T01:46:57.734Z,84.35
2022-12-09T01:49:38.516Z,84.26
2022-12-09T01:52:15.789Z,84.28
2022-12-09T01:54:46.514Z,84.56
2022-12-09T01:57:15.810Z,84.66
2022-12-09T01:59:45.499Z,84.68
2022-12-09T02:02:19.685Z,84.65
2022-12-09T02:04:50.773Z,84.65
2022-12-09T02:07:20.030Z,84.65
2022-12-09T02:09:53.505Z,84.66
2022-12-09T02:12:37.918Z,84.67
2022-12-09T02:15:21.795Z,84.24
2022-12-09T02:17:59.739Z,84.46
2022-12-09T02:20:43.552Z,84.68
2022-12-09T02:23:33.037Z,85.15
2022-12-09T02:26:19.212Z,85.27
2022-12-09T02:29:45.602Z,85.42
2022-12-09T02:32:47.953Z,85.58
2022-12-09T02:35:32.531Z,85.68
2022-12-09T02:38:13.398Z,85.84
2022-12-09T02:40:53.026Z,85.98
2022-12-09T02:43:28.441Z,85.93
2022-12-09T02:45:59.935Z,85.92
2022-12-09T02:48:37.513Z,85.88
2022-12-09T02:51:12.398Z,85.86
2022-12-09T02:53:43.438Z,85.82
2022-12-09T02:56:13.701Z,85.81
2022-12-09T02:58:41.582Z,85.70
2022-12-09T03:01:24.172Z,85.65
2022-12-09T03:03:54.935Z,85.62
2022-12-09T03:06:31.456Z,85.66
2022-12-09T03:09:10.551Z,85.55
2022-12-09T03:11:40.667Z,85.51
2022-12-09T03:14:17.619Z,85.43
2022-12-09T03:17:14.079Z,85.56
2022-12-09T03:19:52.838Z,85.52
2022-12-09T03:22:28.745Z,85.55
2022-12-09T03:25:08.988Z,85.59
2022-12-09T03:27:52.346Z,85.60
2022-12-09T03:30:21.255Z,85.64
2022-12-09T03:32:51.584Z,85.64
2022-12-09T03:35:29.828Z,85.66
2022-12-09T03:38:02.008Z,85.74
2022-12-09T03:40:32.401Z,85.68
2022-12-09T03:43:08.418Z,85.60
2022-12-09T03:45:37.071Z,85.64
2022-12-09T03:48:05.171Z,85.64
2022-12-09T03:50:47.290Z,85.57
2022-12-09T03:53:52.171Z,85.45
2022-12-09T03:56:27.102Z,85.73
2022-12-09T03:58:59.017Z,86.18
2022-12-09T04:01:29.069Z,86.66
2022-12-09T04:03:57.754Z,86.68
2022-12-09T04:06:26.479Z,86.74
2022-12-09T04:08:58.127Z,86.97
2022-12-09T04:11:31.978Z,86.89
2022-12-09T04:14:00.466Z,86.99
2022-12-09T04:16:28.676Z,87.06
2022-12-09T04:18:56.905Z,87.23
2022-12-09T04:21:24.921Z,87.21
2022-12-09T04:23:52.759Z,87.13
2022-12-09T04:26:23.120Z,87.21
2022-12-09T04:28:51.384Z,87.39
2022-12-09T04:31:20.535Z,87.46
2022-12-09T04:33:48.894Z,87.37
2022-12-09T04:36:19.757Z,87.80
2022-12-09T04:38:48.647Z,87.87
2022-12-09T04:41:16.982Z,87.83
2022-12-09T04:43:44.882Z,87.69
2022-12-09T04:46:18.720Z,87.68
2022-12-09T04:48:47.686Z,87.63
2022-12-09T04:51:17.096Z,87.63
2022-12-09T04:53:45.736Z,87.56
2022-12-09T04:56:21.448Z,87.51
2022-12-09T04:58:50.947Z,87.56
2022-12-09T05:01:29.796Z,87.57
2022-12-09T05:03:59.885Z,87.73
2022-12-09T05:06:29.213Z,87.94
2022-12-09T05:08:58.000Z,87.99
2022-12-09T05:11:26.168Z,87.87
2022-12-09T05:13:54.677Z,87.84
2022-12-09T05:16:22.870Z,87.80
2022-12-09T05:18:51.477Z,87.79
2022-12-09T05:21:21.707Z,87.83
2022-12-09T05:23:50.320Z,87.89
2022-12-09T05:26:22.086Z,87.91
2022-12-09T05:28:51.652Z,87.84
2022-12-09T05:31:22.847Z,87.82
2022-12-09T05:33:52.346Z,87.78
2022-12-09T05:36:30.335Z,87.77
2022-12-09T05:38:58.687Z,87.65
2022-12-09T05:41:28.698Z,87.62
2022-12-09T05:43:57.212Z,87.74
2022-12-09T05:46:25.092Z,87.75
2022-12-09T05:48:53.279Z,87.86
2022-12-09T05:51:28.884Z,87.96
2022-12-09T05:54:01.951Z,87.97
2022-12-09T05:56:30.984Z,87.95
2022-12-09T05:58:59.535Z,88.07
2022-12-09T06:01:27.888Z,87.99
2022-12-09T06:03:56.647Z,88.04
2022-12-09T06:06:28.273Z,88.08
2022-12-09T06:08:59.680Z,88.20
2022-12-09T06:11:28.845Z,88.20
2022-12-09T06:13:57.147Z,88.21
2022-12-09T06:16:26.050Z,88.16
2022-12-09T06:18:54.538Z,88.11
2022-12-09T06:21:23.605Z,88.17
2022-12-09T06:23:52.885Z,88.23
2022-12-09T06:26:28.309Z,88.41
2022-12-09T06:28:57.181Z,88.50
2022-12-09T06:31:27.595Z,88.51
2022-12-09T06:33:58.045Z,88.50
2022-12-09T06:36:31.314Z,88.60
2022-12-09T06:39:09.728Z,88.64
2022-12-09T06:41:43.051Z,88.61
2022-12-09T06:44:15.865Z,88.87
2022-12-09T06:46:47.911Z,89.04
2022-12-09T06:49:16.179Z,89.11
2022-12-09T06:51:44.711Z,89.01
2022-12-09T06:54:13.451Z,89.00
2022-12-09T06:56:41.385Z,89.06
2022-12-09T06:59:10.809Z,89.24
2022-12-09T07:01:39.749Z,89.44
2022-12-09T07:04:08.484Z,89.28
2022-12-09T07:06:40.388Z,89.30
2022-12-09T07:09:17.714Z,89.31
2022-12-09T07:11:47.075Z,89.56
2022-12-09T07:14:18.342Z,89.72
2022-12-09T07:16:47.340Z,89.79
2022-12-09T07:19:19.943Z,89.57
2022-12-09T07:21:50.184Z,89.57
2022-12-09T07:24:20.249Z,89.57
2022-12-09T07:26:49.260Z,89.59
2022-12-09T07:29:18.731Z,89.79
2022-12-09T07:31:47.940Z,89.67
2022-12-09T07:34:16.806Z,89.53
2022-12-09T07:36:44.739Z,89.45
2022-12-09T07:39:17.975Z,89.38
2022-12-09T07:41:47.786Z,89.32
2022-12-09T07:44:15.586Z,89.24
2022-12-09T07:46:43.801Z,89.32
2022-12-09T07:49:12.772Z,89.22
2022-12-09T07:51:42.661Z,89.19
2022-12-09T07:54:17.104Z,89.25
2022-12-09T07:56:46.185Z,89.22
2022-12-09T07:59:15.360Z,89.17
2022-12-09T08:01:44.584Z,89.13
2022-12-09T08:04:13.397Z,89.16
2022-12-09T08:06:41.799Z,89.18
2022-12-09T08:09:13.962Z,89.08
2022-12-09T08:11:42.911Z,89.07
2022-12-09T08:14:13.170Z,89.05
2022-12-09T08:16:43.670Z,89.07
2022-12-09T08:19:12.663Z,89.11
2022-12-09T08:21:41.677Z,89.06
2022-12-09T08:24:12.592Z,89.08
2022-12-09T08:26:41.129Z,89.04
2022-12-09T08:29:13.154Z,89.09
2022-12-09T08:31:43.941Z,89.16
2022-12-09T08:34:13.326Z,89.15
2022-12-09T08:36:41.800Z,89.25
2022-12-09T08:39:11.816Z,89.21
2022-12-09T08:41:41.117Z,89.32
2022-12-09T08:44:20.917Z,89.21
2022-12-09T08:46:52.022Z,89.32
2022-12-09T08:49:23.434Z,89.28
2022-12-09T08:51:53.657Z,89.27
2022-12-09T08:54:22.318Z,89.36
2022-12-09T08:56:55.215Z,89.31
2022-12-09T08:59:23.896Z,89.33
2022-12-09T09:01:51.828Z,89.30
2022-12-09T09:04:23.048Z,89.26
2022-12-09T09:06:53.823Z,89.32
2022-12-09T09:09:23.212Z,89.22
2022-12-09T09:11:51.758Z,89.24
2022-12-09T09:14:20.195Z,89.24
2022-12-09T09:16:48.231Z,89.19
2022-12-09T09:19:26.004Z,89.19
2022-12-09T09:21:55.540Z,89.05
2022-12-09T09:24:26.047Z,89.07
2022-12-09T09:26:54.154Z,89.07
2022-12-09T09:29:24.031Z,89.01
2022-12-09T09:31:56.440Z,88.86
2022-12-09T09:34:26.879Z,88.85
2022-12-09T09:36:56.694Z,88.95
2022-12-09T09:39:25.015Z,88.92
2022-12-09T09:42:08.170Z,88.84
2022-12-09T09:44:53.562Z,88.75
2022-12-09T09:47:38.944Z,88.71
2022-12-09T09:50:28.720Z,88.71
2022-12-09T09:52:57.663Z,88.66
2022-12-09T09:55:46.083Z,88.61
2022-12-09T09:58:25.598Z,88.48
2022-12-09T10:01:04.239Z,88.36
2022-12-09T10:04:18.352Z,88.20
2022-12-09T10:07:21.936Z,88.11
2022-12-09T10:10:19.997Z,88.01
2022-12-09T10:13:06.795Z,87.88
2022-12-09T10:16:02.765Z,87.74
2022-12-09T10:18:43.149Z,87.54
2022-12-09T10:21:19.373Z,87.43
2022-12-09T10:23:49.836Z,87.50
2022-12-09T10:26:29.103Z,87.52
2022-12-09T10:29:27.171Z,87.29
2022-12-09T10:31:55.396Z,86.81
2022-12-09T10:34:23.866Z,86.88
2022-12-09T10:36:52.556Z,86.48
2022-12-09T10:39:22.116Z,86.54
2022-12-09T10:42:16.164Z,86.23
2022-12-09T10:44:44.464Z,86.21
2022-12-09T10:47:28.191Z,85.98
2022-12-09T10:49:58.502Z,86.22
2022-12-09T10:52:32.515Z,85.68
2022-12-09T10:55:00.510Z,85.40
2022-12-09T10:57:30.580Z,85.43
2022-12-09T11:00:06.203Z,85.84
2022-12-09T11:02:34.999Z,86.00
2022-12-09T11:05:30.074Z,86.10
2022-12-09T11:07:59.516Z,86.11
2022-12-09T11:10:30.711Z,85.85
2022-12-09T11:13:09.699Z,85.77
2022-12-09T11:15:46.186Z,85.42
2022-12-09T11:18:28.220Z,85.40
2022-12-09T11:21:03.123Z,85.64
2022-12-09T11:23:32.713Z,85.10
2022-12-09T11:26:24.529Z,84.93
2022-12-09T11:29:16.449Z,85.11
2022-12-09T11:31:45.630Z,85.12
2022-12-09T11:34:26.346Z,84.95
2022-12-09T11:36:58.456Z,84.76
2022-12-09T11:39:35.394Z,85.00
2022-12-09T11:42:23.145Z,84.62
2022-12-09T11:45:04.438Z,84.94
2022-12-09T11:48:21.547Z,85.17
2022-12-09T11:50:33.160Z,85.32
2022-12-09T11:53:13.477Z,85.22
2022-12-09T11:56:32.103Z,85.39
2022-12-09T11:59:09.082Z,85.19
2022-12-09T12:02:27.243Z,85.27
2022-12-09T12:05:23.521Z,85.49
2022-12-09T12:08:08.437Z,85.36
2022-12-09T12:10:44.548Z,85.00
2022-12-09T12:13:28.593Z,85.00
2022-12-09T12:16:42.591Z,84.59
2022-12-09T12:19:32.058Z,84.41
2022-12-09T12:22:18.621Z,84.47
2022-12-09T12:25:18.100Z,84.02
2022-12-09T12:28:12.714Z,83.42
2022-12-09T12:31:18.239Z,83.28
2022-12-09T12:34:24.592Z,83.26
2022-12-09T12:37:12.045Z,81.46
2022-12-09T12:40:22.021Z,81.00
2022-12-09T12:43:37.652Z,80.00
2022-12-09T12:46:25.138Z,80.60
2022-12-09T12:49:24.321Z,80.04
2022-12-09T12:52:39.513Z,80.47
2022-12-09T12:55:21.475Z,79.48
2022-12-09T12:58:09.329Z,78.69
2022-12-09T13:01:00.661Z,78.13
2022-12-09T13:03:45.488Z,78.32
2022-12-09T13:06:17.622Z,78.69
2022-12-09T13:09:03.076Z,77.86
2022-12-09T13:12:14.128Z,77.89
2022-12-09T13:14:54.980Z,78.62
2022-12-09T13:17:28.623Z,77.65
2022-12-09T13:20:01.872Z,77.80
2022-12-09T13:22:55.119Z,77.26
2022-12-09T13:25:49.585Z,77.32
2022-12-09T13:28:26.849Z,76.63
2022-12-09T13:30:59.324Z,76.54
2022-12-09T13:34:07.348Z,75.92
2022-12-09T13:36:45.651Z,75.54
2022-12-09T13:39:39.770Z,76.96
2022-12-09T13:42:46.368Z,76.28
2022-12-09T13:45:59.828Z,75.97
2022-12-09T13:48:30.612Z,75.35
2022-12-09T13:51:00.060Z,76.00
2022-12-09T13:53:33.952Z,75.10
2022-12-09T13:56:16.814Z,75.35
2022-12-09T13:59:21.743Z,74.66
2022-12-09T14:01:53.616Z,74.63
2022-12-09T14:04:29.260Z,74.67
2022-12-09T14:07:10.457Z,75.61
2022-12-09T14:09:50.745Z,76.03
2022-12-09T14:12:28.420Z,76.19
2022-12-09T14:14:58.930Z,76.11
2022-12-09T14:17:29.363Z,76.30
2022-12-09T14:19:57.060Z,76.33
2022-12-09T14:22:24.788Z,75.58
2022-12-09T14:24:56.116Z,75.12
2022-12-09T14:27:32.755Z,74.96
2022-12-09T14:30:23.869Z,75.55
2022-12-09T14:32:57.108Z,75.77
2022-12-09T14:35:48.001Z,76.07
2022-12-09T14:38:31.117Z,75.91
2022-12-09T14:41:39.463Z,75.83
2022-12-09T14:45:00.437Z,75.76
2022-12-09T14:47:38.056Z,74.68
2022-12-09T14:50:15.474Z,75.19
2022-12-09T14:53:07.079Z,75.67
2022-12-09T14:55:40.256Z,75.33
2022-12-09T14:58:19.901Z,75.87
2022-12-09T15:01:04.520Z,75.96
2022-12-09T15:03:39.121Z,76.06
2022-12-09T15:06:19.245Z,76.01
2022-12-09T15:08:50.831Z,76.18
2022-12-09T15:11:29.306Z,76.24
2022-12-09T15:14:22.462Z,76.43
2022-12-09T15:16:51.715Z,76.88
2022-12-09T15:19:58.129Z,77.08
2022-12-09T15:22:24.002Z,77.24
2022-12-09T15:24:52.926Z,77.27
2022-12-09T15:27:24.413Z,77.68
2022-12-09T15:29:53.583Z,77.84
2022-12-09T15:32:29.182Z,77.99
2022-12-09T15:35:23.714Z,78.29
2022-12-09T15:37:55.965Z,78.68
2022-12-09T15:40:29.075Z,79.02
2022-12-09T15:43:06.492Z,79.00
2022-12-09T15:45:39.568Z,79.02
2022-12-09T15:48:18.184Z,79.06
2022-12-09T15:51:00.949Z,79.12
2022-12-09T15:53:41.816Z,79.32
2022-12-09T15:56:20.540Z,79.68
2022-12-09T15:58:53.868Z,79.94
2022-12-09T16:01:27.565Z,80.26
2022-12-09T16:03:58.685Z,80.24
2022-12-09T16:06:37.249Z,80.28
2022-12-09T16:09:18.795Z,80.47
2022-12-09T16:11:51.634Z,80.76
2022-12-09T16:14:23.509Z,80.97
2022-12-09T16:17:00.236Z,81.25
2022-12-09T16:19:40.600Z,81.45
2022-12-09T16:22:11.264Z,81.63
2022-12-09T16:25:17.081Z,81.77
2022-12-09T16:27:51.331Z,81.85
2022-12-09T16:30:22.908Z,81.96
2022-12-09T16:32:51.834Z,82.32
2022-12-09T16:35:40.918Z,82.44
2022-12-09T16:38:09.294Z,82.72
2022-12-09T16:40:45.778Z,82.91
2022-12-09T16:43:25.551Z,83.01
2022-12-09T16:45:55.748Z,83.35
2022-12-09T16:48:25.950Z,83.46
2022-12-09T16:51:17.417Z,83.57
2022-12-09T16:53:51.707Z,83.65
2022-12-09T16:56:29.172Z,83.67
2022-12-09T16:58:59.179Z,84.13
2022-12-09T17:01:34.768Z,84.05
2022-12-09T17:04:34.657Z,84.31
2022-12-09T17:07:02.330Z,84.30
2022-12-09T17:09:30.008Z,84.30
2022-12-09T17:11:57.678Z,84.28
2022-12-09T17:14:25.468Z,84.34
2022-12-09T17:16:53.306Z,84.46
2022-12-09T17:19:25.126Z,84.43
2022-12-09T17:21:53.055Z,84.39
2022-12-09T17:24:20.947Z,84.45
2022-12-09T17:26:48.692Z,84.23
2022-12-09T17:29:16.447Z,84.42
2022-12-09T17:31:44.261Z,84.64
2022-12-09T17:34:12.029Z,84.68
2022-12-09T17:36:39.831Z,84.38
2022-12-09T17:39:07.507Z,84.67
2022-12-09T17:41:35.166Z,85.00
2022-12-09T17:44:02.881Z,84.90
2022-12-09T17:46:30.874Z,84.89
2022-12-09T17:49:02.256Z,85.10
2022-12-09T17:51:35.662Z,85.18
2022-12-09T17:54:05.548Z,85.22
2022-12-09T17:56:33.750Z,85.33
2022-12-09T17:59:09.728Z,85.54
2022-12-09T18:01:41.020Z,85.45
2022-12-09T18:04:10.447Z,85.35
2022-12-09T18:06:44.770Z,85.59
2022-12-09T18:09:17.499Z,85.84
2022-12-09T18:11:46.173Z,85.71
2022-12-09T18:14:14.632Z,85.57
2022-12-09T18:16:42.394Z,85.58
2022-12-09T18:19:16.527Z,85.57
2022-12-09T18:21:45.266Z,85.45
2022-12-09T18:24:13.649Z,85.31
2022-12-09T18:26:42.451Z,85.16
2022-12-09T18:29:12.056Z,85.13
2022-12-09T18:31:42.129Z,85.10
2022-12-09T18:34:09.904Z,85.13
2022-12-09T18:36:37.778Z,84.98
2022-12-09T18:39:06.925Z,85.04
2022-12-09T18:41:35.744Z,85.17
2022-12-09T18:44:08.182Z,85.30
2022-12-09T18:46:40.237Z,85.33
2022-12-09T18:49:13.149Z,85.39
2022-12-09T18:51:43.819Z,85.37
2022-12-09T18:54:17.835Z,85.38
2022-12-09T18:56:45.834Z,85.46
2022-12-09T18:59:13.556Z,85.42
2022-12-09T19:01:45.392Z,85.38
2022-12-09T19:04:18.277Z,85.37
2022-12-09T19:06:49.696Z,85.60
2022-12-09T19:09:34.565Z,85.44
2022-12-09T19:12:37.764Z,85.70
2022-12-09T19:14:52.807Z,85.89
2022-12-09T19:17:21.230Z,85.98
2022-12-09T19:19:49.546Z,85.91
2022-12-09T19:22:17.345Z,85.82
2022-12-09T19:24:45.257Z,85.85
2022-12-09T19:27:13.332Z,85.72
2022-12-09T19:29:41.137Z,85.63
2022-12-09T19:32:29.489Z,85.46
2022-12-09T19:34:57.137Z,85.38
2022-12-09T19:37:25.868Z,85.43
2022-12-09T19:39:53.604Z,85.10
2022-12-09T19:42:21.380Z,85.20
2022-12-09T19:45:10.618Z,85.26
2022-12-09T19:47:38.517Z,85.25
2022-12-09T19:50:07.478Z,85.36
2022-12-09T19:52:35.457Z,85.20
2022-12-09T19:55:03.689Z,85.32
2022-12-09T19:57:31.421Z,85.24
2022-12-09T19:59:59.094Z,85.31
2022-12-09T20:02:26.832Z,85.41
2022-12-09T20:04:54.967Z,85.37
2022-12-09T20:07:22.849Z,85.03
2022-12-09T20:09:50.711Z,85.01
2022-12-09T20:12:18.430Z,84.99
2022-12-09T20:14:46.116Z,85.07
2022-12-09T20:17:13.861Z,85.11
2022-12-09T20:19:41.596Z,85.46
2022-12-09T20:22:09.341Z,85.72
2022-12-09T20:24:37.013Z,85.64
2022-12-09T20:27:04.780Z,85.59
2022-12-09T20:29:37.349Z,85.60
2022-12-09T20:32:08.587Z,85.38
2022-12-09T20:34:36.415Z,85.24
2022-12-09T20:37:05.001Z,85.34
2022-12-09T20:39:32.857Z,85.27
2022-12-09T20:42:00.538Z,85.32
2022-12-09T20:44:28.455Z,85.46
2022-12-09T20:46:56.886Z,85.33
2022-12-09T20:49:27.112Z,85.46
2022-12-09T20:51:55.361Z,85.34
2022-12-09T20:54:23.540Z,85.46
2022-12-09T20:56:52.971Z,85.51
2022-12-09T20:59:20.727Z,85.54
2022-12-09T21:01:48.449Z,85.49
2022-12-09T21:04:16.279Z,85.49
2022-12-09T21:06:44.191Z,85.47
2022-12-09T21:09:18.884Z,85.35
2022-12-09T21:11:49.028Z,85.55
2022-12-09T21:14:20.305Z,85.37
2022-12-09T21:16:52.266Z,85.06
2022-12-09T21:19:29.841Z,85.32
2022-12-09T21:21:57.946Z,85.37
2022-12-09T21:24:25.820Z,85.57
2022-12-09T21:26:55.272Z,85.73
2022-12-09T21:29:29.943Z,85.79
2022-12-09T21:32:01.695Z,85.55
2022-12-09T21:34:29.932Z,85.50
2022-12-09T21:36:57.770Z,85.57
2022-12-09T21:39:27.570Z,85.59
2022-12-09T21:41:55.479Z,85.62
2022-12-09T21:44:25.365Z,85.64
2022-12-09T21:46:53.560Z,85.89
2022-12-09T21:49:21.276Z,85.93
2022-12-09T21:51:48.971Z,85.80
2022-12-09T21:54:16.864Z,85.83
2022-12-09T21:56:44.674Z,86.01
2022-12-09T21:59:13.852Z,85.93
2022-12-09T22:01:42.881Z,85.89
2022-12-09T22:04:16.116Z,85.95
2022-12-09T22:06:47.725Z,86.08
2022-12-09T22:09:18.642Z,85.79
2022-12-09T22:11:46.437Z,85.38
2022-12-09T22:14:14.416Z,85.18
2022-12-09T22:16:45.852Z,85.28
2022-12-09T22:19:17.659Z,85.26
2022-12-09T22:21:45.869Z,85.41
2022-12-09T22:24:15.806Z,85.45
2022-12-09T22:26:45.118Z,85.37
2022-12-09T22:29:15.985Z,85.16
2022-12-09T22:31:45.202Z,85.19
2022-12-09T22:34:18.209Z,85.19
2022-12-09T22:36:49.205Z,85.04
2022-12-09T22:39:21.799Z,85.14
2022-12-09T22:41:50.892Z,85.36
2022-12-09T22:44:20.170Z,85.30
2022-12-09T22:46:48.772Z,85.46
2022-12-09T22:49:17.696Z,85.36
2022-12-09T22:51:47.486Z,85.43
2022-12-09T22:54:15.549Z,85.46
2022-12-09T22:56:44.441Z,85.44
2022-12-09T22:59:14.054Z,85.23
2022-12-09T23:01:48.548Z,85.55
2022-12-09T23:04:21.729Z,85.63
2022-12-09T23:06:50.703Z,85.65
2022-12-09T23:09:22.699Z,85.56
2022-12-09T23:11:52.500Z,85.61
2022-12-09T23:14:20.403Z,85.64
2022-12-09T23:16:48.193Z,85.67
2022-12-09T23:19:16.016Z,85.60
2022-12-09T23:21:43.737Z,85.54
2022-12-09T23:24:18.425Z,85.73
2022-12-09T23:26:48.803Z,85.83
2022-12-09T23:29:16.611Z,85.64
2022-12-09T23:31:44.581Z,85.41
2022-12-09T23:34:14.451Z,85.32
2022-12-09T23:36:44.126Z,85.49
2022-12-09T23:39:16.488Z,85.66
2022-12-09T23:41:45.927Z,85.86
2022-12-09T23:44:17.842Z,85.39
2022-12-09T23:46:45.676Z,85.45
2022-12-09T23:49:13.464Z,85.41
2022-12-09T23:51:43.877Z,85.34
2022-12-09T23:54:14.729Z,85.44
2022-12-09T23:56:47.974Z,85.39
2022-12-09T23:59:21.305Z,85.52
